Time;durP1;ratioP1;P1;durP2;ratioP2;P2;SDS_P1;SDS_P2;PMS_P1;PMS_P2;Temp;Humidity;BMP_temperature;BMP_pressure;BME280_temperature;BME280_humidity;BME280_pressure;Samples;Min_cycle;Max_cycle;Signal;HPM_P1;HPM_P2
2021/11/02 00:00:28;;;;;;;4.10;0.80;;;;;;;;;;5075145;28;20435;-67
2021/11/02 00:02:53;;;;;;;2.10;0.88;;;;;;;;;;5093589;28;20123;-67
2021/11/02 00:05:18;;;;;;;1.50;1.20;;;;;;;;;;5094063;28;20023;-67
2021/11/02 00:07:46;;;;;;;3.58;0.90;;;;;;;;;;5094004;28;20024;-67
2021/11/02 00:10:11;;;;;;;4.13;1.08;;;;;;;;;;5076066;28;20169;-67
2021/11/02 00:12:36;;;;;;;2.75;1.13;;;;;;;;;;5087109;28;20061;-67
2021/11/02 00:15:02;;;;;;;3.47;1.00;;;;;;;;;;5101364;28;20016;-67
2021/11/02 00:17:29;;;;;;;1.13;0.60;;;;;;;;;;5093865;28;20106;-67
2021/11/02 00:20:00;;;;;;;1.98;0.90;;;;;;;;;;5093719;28;20031;-67
2021/11/02 00:22:27;;;;;;;1.65;0.57;;;;;;;;;;5093037;28;20519;-67
2021/11/02 00:27:18;;;;;;;2.08;0.80;;;;;;;;;;5091909;28;20063;-68
2021/11/02 00:29:43;;;;;;;3.08;0.70;;;;;;;;;;5087216;28;20419;-68
2021/11/02 00:32:08;;;;;;;1.80;0.68;;;;;;;;;;5096083;28;20051;-69
2021/11/02 00:34:34;;;;;;;1.13;0.60;;;;;;;;;;5070735;28;20017;-66
2021/11/02 00:36:59;;;;;;;1.75;0.75;;;;;;;;;;5091553;28;20016;-66
2021/11/02 00:39:24;;;;;;;2.55;0.68;;;;;;;;;;5093517;28;20060;-66
2021/11/02 00:41:49;;;;;;;1.42;0.55;;;;;;;;;;5075071;28;20069;-67
2021/11/02 00:44:16;;;;;;;1.70;0.52;;;;;;;;;;5093437;28;20054;-67
2021/11/02 00:46:42;;;;;;;2.15;0.57;;;;;;;;;;5093348;28;20027;-68
2021/11/02 00:49:15;;;;;;;2.17;0.50;;;;;;;;;;5092499;28;20070;-67
2021/11/02 00:51:40;;;;;;;2.17;0.50;;;;;;;;;;5093140;28;20025;-67
2021/11/02 00:54:06;;;;;;;2.67;0.43;;;;;;;;;;5097374;28;20468;-67
2021/11/02 00:56:31;;;;;;;1.27;0.50;;;;;;;;;;5092362;28;20530;-67
2021/11/02 00:58:56;;;;;;;1.50;0.60;;;;;;;;;;5089679;28;20091;-67
2021/11/02 01:01:21;;;;;;;2.22;0.50;;;;;;;;;;5090844;28;20031;-67
2021/11/02 01:03:46;;;;;;;1.70;0.52;;;;;;;;;;5097468;28;20027;-68
2021/11/02 01:06:12;;;;;;;1.80;0.60;;;;;;;;;;5109179;28;20031;-67
2021/11/02 01:08:37;;;;;;;1.85;0.60;;;;;;;;;;5082709;28;20024;-67
2021/11/02 01:11:03;;;;;;;0.80;0.30;;;;;;;;;;5093297;28;20023;-67
2021/11/02 01:13:28;;;;;;;3.75;0.40;;;;;;;;;;5093265;28;20066;-68
2021/11/02 01:15:53;;;;;;;2.00;0.50;;;;;;;;;;5058003;28;20111;-67
2021/11/02 01:18:18;;;;;;;1.25;0.40;;;;;;;;;;5097255;28;20486;-67
2021/11/02 01:20:44;;;;;;;1.20;0.45;;;;;;;;;;5092987;28;20095;-67
2021/11/02 01:23:09;;;;;;;1.88;0.43;;;;;;;;;;5091682;28;20016;-67
2021/11/02 01:25:35;;;;;;;2.13;0.50;;;;;;;;;;5092264;28;20381;-67
2021/11/02 01:28:00;;;;;;;1.48;0.45;;;;;;;;;;5072310;28;20019;-67
2021/11/02 01:30:25;;;;;;;1.20;0.40;;;;;;;;;;5082739;28;20045;-67
2021/11/02 01:32:50;;;;;;;1.15;0.40;;;;;;;;;;5068775;28;20030;-68
2021/11/02 01:35:15;;;;;;;0.70;0.40;;;;;;;;;;5092133;28;20016;-68
2021/11/02 01:37:41;;;;;;;1.05;0.50;;;;;;;;;;5080341;28;20069;-68
2021/11/02 01:40:13;;;;;;;1.40;0.80;;;;;;;;;;5074610;28;20035;-67
2021/11/02 01:42:39;;;;;;;3.75;0.50;;;;;;;;;;5094965;28;20031;-67
2021/11/02 01:45:05;;;;;;;2.28;0.40;;;;;;;;;;5091693;28;20042;-67
2021/11/02 01:47:32;;;;;;;2.05;0.43;;;;;;;;;;5108327;28;20474;-67
2021/11/02 01:49:57;;;;;;;1.80;0.50;;;;;;;;;;5074356;28;20016;-68
2021/11/02 01:52:22;;;;;;;2.58;0.60;;;;;;;;;;5091617;28;20035;-67
2021/11/02 01:54:47;;;;;;;2.08;0.52;;;;;;;;;;5107321;27;20025;-67
2021/11/02 01:57:13;;;;;;;2.28;0.68;;;;;;;;;;5090444;28;20040;-67
2021/11/02 01:59:39;;;;;;;0.93;0.50;;;;;;;;;;5078389;28;20392;-67
2021/11/02 02:02:07;;;;;;;1.38;0.50;;;;;;;;;;5079178;28;20020;-68
2021/11/02 02:04:41;;;;;;;0.73;0.57;;;;;;;;;;5092655;28;20020;-67
2021/11/02 02:07:25;;;;;;;1.88;0.30;;;;;;;;;;5092141;28;20116;-67
2021/11/02 02:09:58;;;;;;;2.70;0.90;;;;;;;;;;5092242;28;20552;-69
2021/11/02 02:12:27;;;;;;;4.00;1.30;;;;;;;;;;5073757;28;20043;-67
2021/11/02 02:14:53;;;;;;;2.42;0.77;;;;;;;;;;5094140;28;20041;-67
2021/11/02 02:17:20;;;;;;;2.42;1.25;;;;;;;;;;5112245;28;20016;-68
2021/11/02 02:19:52;;;;;;;0.85;0.68;;;;;;;;;;5093040;28;20069;-68
2021/11/02 02:22:29;;;;;;;2.17;1.00;;;;;;;;;;5092783;28;20032;-68
2021/11/02 02:25:07;;;;;;;1.70;0.40;;;;;;;;;;5091626;28;20028;-68
2021/11/02 02:27:32;;;;;;;2.60;0.60;;;;;;;;;;5090934;28;20023;-67
2021/11/02 02:29:59;;;;;;;2.28;0.73;;;;;;;;;;5102003;28;20416;-68
2021/11/02 02:32:26;;;;;;;2.05;0.50;;;;;;;;;;5107916;28;20024;-67
2021/11/02 02:34:52;;;;;;;2.17;0.60;;;;;;;;;;5090468;28;20486;-67
2021/11/02 02:37:21;;;;;;;2.67;1.00;;;;;;;;;;5084015;28;20031;-68
2021/11/02 02:39:47;;;;;;;1.83;1.05;;;;;;;;;;5096953;28;20028;-68
2021/11/02 02:42:13;;;;;;;1.42;0.60;;;;;;;;;;5107965;28;20384;-68
2021/11/02 02:44:39;;;;;;;2.22;0.50;;;;;;;;;;5091216;28;20105;-68
2021/11/02 02:47:04;;;;;;;2.33;0.50;;;;;;;;;;5091208;28;20480;-68
2021/11/02 02:49:30;;;;;;;1.65;0.65;;;;;;;;;;5091320;28;20016;-69
2021/11/02 02:51:56;;;;;;;1.77;0.77;;;;;;;;;;5073274;28;20571;-68
2021/11/02 02:54:22;;;;;;;1.25;0.60;;;;;;;;;;5100298;28;20024;-68
2021/11/02 02:56:49;;;;;;;2.13;0.90;;;;;;;;;;5095034;28;20027;-68
2021/11/02 02:59:15;;;;;;;3.05;1.08;;;;;;;;;;5097161;28;20099;-67
2021/11/02 03:01:40;;;;;;;1.98;0.95;;;;;;;;;;5095230;28;20544;-67
2021/11/02 03:04:07;;;;;;;2.63;1.20;;;;;;;;;;5094669;28;20589;-68
2021/11/02 03:06:35;;;;;;;1.77;0.77;;;;;;;;;;5084255;28;20110;-68
2021/11/02 03:09:00;;;;;;;1.50;0.63;;;;;;;;;;5095553;28;20020;-69
2021/11/02 03:11:28;;;;;;;1.60;0.57;;;;;;;;;;5076589;28;20547;-69
2021/11/02 03:13:55;;;;;;;1.25;0.70;;;;;;;;;;5097604;28;20032;-68
2021/11/02 03:16:30;;;;;;;1.70;0.70;;;;;;;;;;5101831;28;20023;-68
2021/11/02 03:43:45;;;;;;;1.90;0.90;;;;;;;;;;5105704;28;20039;-67
2021/11/02 03:51:45;;;;;;;2.03;0.95;;;;;;;;;;5094877;28;20503;-68
2021/11/02 05:49:55;;;;;;;4.20;2.67;;;;;;;;;;4983272;28;20031;-67
2021/11/02 05:53:03;;;;;;;4.35;2.60;;;;;;;;;;4991884;28;21480;-67
2021/11/02 06:06:41;;;;;;;5.95;3.35;;;;;;;;;;4993819;28;20069;-68
2021/11/02 06:28:13;;;;;;;3.55;3.22;;;;;;;;;;4969753;28;20090;-66
2021/11/02 06:30:52;;;;;;;5.43;4.18;;;;;;;;;;5027514;28;20053;-66
2021/11/02 06:59:58;;;;;;;6.50;4.45;;;;;;;;;;5024951;28;20040;-67
2021/11/02 07:16:51;;;;;;;3.55;3.25;;;;;;;;;;5091822;28;20055;-67
2021/11/02 07:19:24;;;;;;;6.95;3.92;;;;;;;;;;5090387;28;20024;-67
2021/11/02 07:22:15;;;;;;;4.50;4.10;;;;;;;;;;5072882;28;20122;-67
2021/11/02 08:47:22;;;;;;;3.17;2.78;;;;;;;;;;5088211;28;20062;-68
2021/11/02 08:49:49;;;;;;;3.63;3.05;;;;;;;;;;5092424;28;20031;-67
2021/11/02 08:52:15;;;;;;;4.03;3.05;;;;;;;;;;5075180;28;20389;-67
2021/11/02 08:54:41;;;;;;;3.92;2.67;;;;;;;;;;5092874;28;20023;-68
2021/11/02 08:57:07;;;;;;;4.28;2.28;;;;;;;;;;5096835;28;20023;-68
2021/11/02 08:59:33;;;;;;;5.07;2.65;;;;;;;;;;5091953;28;20027;-67
2021/11/02 09:01:59;;;;;;;2.88;2.17;;;;;;;;;;5096726;28;20027;-68
2021/11/02 09:04:28;;;;;;;2.90;2.33;;;;;;;;;;5092310;28;20020;-68
2021/11/02 09:06:54;;;;;;;4.75;2.97;;;;;;;;;;5105570;28;20586;-68
2021/11/02 09:09:19;;;;;;;2.83;2.58;;;;;;;;;;5093947;28;20016;-67
2021/11/02 09:11:45;;;;;;;4.43;2.55;;;;;;;;;;5074297;28;20024;-68
2021/11/02 09:14:11;;;;;;;3.50;2.72;;;;;;;;;;5085905;28;20107;-67
2021/11/02 09:16:37;;;;;;;3.10;2.00;;;;;;;;;;5074166;28;20012;-67
2021/11/02 09:19:02;;;;;;;4.32;1.80;;;;;;;;;;5093790;28;20107;-67
2021/11/02 09:21:27;;;;;;;3.60;1.80;;;;;;;;;;5096667;28;20043;-67
2021/11/02 09:23:53;;;;;;;3.22;2.25;;;;;;;;;;5091420;28;20073;-68
2021/11/02 09:26:20;;;;;;;2.58;1.90;;;;;;;;;;5073579;28;20024;-68
2021/11/02 09:28:45;;;;;;;2.47;1.75;;;;;;;;;;5067663;28;20025;-68
2021/11/02 09:31:12;;;;;;;3.80;1.63;;;;;;;;;;5097385;28;20044;-68
2021/11/02 09:33:37;;;;;;;3.58;1.90;;;;;;;;;;5087152;28;20012;-68
2021/11/02 09:36:04;;;;;;;3.78;1.40;;;;;;;;;;5073641;28;20020;-68
2021/11/02 09:38:37;;;;;;;2.53;1.60;;;;;;;;;;5057320;28;20020;-68
2021/11/02 09:41:16;;;;;;;3.33;2.05;;;;;;;;;;5055418;28;20061;-67
2021/11/02 09:43:42;;;;;;;2.97;2.08;;;;;;;;;;5089091;28;20077;-68
2021/11/02 09:46:14;;;;;;;2.60;1.67;;;;;;;;;;5070319;28;20019;-67
2021/11/02 09:48:42;;;;;;;4.07;2.22;;;;;;;;;;5091575;28;20048;-67
2021/11/02 09:51:25;;;;;;;4.50;2.13;;;;;;;;;;5092446;28;20004;-67
2021/11/02 09:54:02;;;;;;;3.20;1.65;;;;;;;;;;5092168;28;20012;-68
2021/11/02 09:56:50;;;;;;;4.90;1.75;;;;;;;;;;5086771;28;20053;-68
2021/11/02 09:59:15;;;;;;;3.80;1.25;;;;;;;;;;5098247;28;20099;-68
2021/11/02 10:01:48;;;;;;;3.60;1.40;;;;;;;;;;5076887;28;20047;-68
2021/11/02 10:04:14;;;;;;;2.90;1.30;;;;;;;;;;5109947;28;20020;-66
2021/11/02 10:07:03;;;;;;;2.55;1.48;;;;;;;;;;5097498;28;20028;-67
2021/11/02 10:09:28;;;;;;;2.58;1.02;;;;;;;;;;5073948;28;20020;-67
2021/11/02 10:12:13;;;;;;;1.57;1.07;;;;;;;;;;5091899;28;20520;-67
2021/11/02 10:14:43;;;;;;;2.83;0.60;;;;;;;;;;5084269;28;20261;-67
2021/11/02 10:17:13;;;;;;;1.92;0.70;;;;;;;;;;5093335;28;20019;-68
2021/11/02 10:19:44;;;;;;;3.63;0.90;;;;;;;;;;5091081;28;20031;-67
2021/11/02 10:22:16;;;;;;;2.45;0.60;;;;;;;;;;5073242;28;20077;-67
2021/11/02 10:24:48;;;;;;;1.75;0.70;;;;;;;;;;5073695;28;20020;-67
2021/11/02 10:27:16;;;;;;;1.63;0.80;;;;;;;;;;5091104;28;20069;-67
2021/11/02 10:29:42;;;;;;;4.20;1.30;;;;;;;;;;5060202;28;20040;-67
2021/11/02 10:32:12;;;;;;;2.03;0.90;;;;;;;;;;5075321;28;20050;-68
2021/11/02 10:34:48;;;;;;;2.20;1.00;;;;;;;;;;5097544;28;20023;-68
2021/11/02 10:37:13;;;;;;;1.33;0.60;;;;;;;;;;5098768;28;20020;-67
2021/11/02 10:40:01;;;;;;;1.87;0.40;;;;;;;;;;5091971;28;20016;-67
2021/11/02 10:42:44;;;;;;;2.55;0.60;;;;;;;;;;5091818;28;20274;-67
2021/11/02 10:45:10;;;;;;;1.92;0.45;;;;;;;;;;5093136;28;20020;-67
2021/11/02 10:47:43;;;;;;;0.85;0.40;;;;;;;;;;5074951;28;20070;-67
2021/11/02 10:50:10;;;;;;;1.40;0.60;;;;;;;;;;5073339;28;20118;-68
2021/11/02 10:52:38;;;;;;;1.70;0.40;;;;;;;;;;5091359;28;20494;-67
2021/11/02 10:55:19;;;;;;;2.20;0.52;;;;;;;;;;5075446;28;20044;-68
2021/11/02 10:57:51;;;;;;;1.73;0.43;;;;;;;;;;5063701;28;20019;-68
2021/11/02 11:00:16;;;;;;;1.65;0.40;;;;;;;;;;5090850;28;20020;-67
2021/11/02 11:02:43;;;;;;;1.00;0.40;;;;;;;;;;5074331;28;20497;-68
2021/11/02 11:05:08;;;;;;;2.22;0.52;;;;;;;;;;5070740;28;20066;-67
2021/11/02 11:07:37;;;;;;;0.93;0.60;;;;;;;;;;5096549;28;20032;-67
2021/11/02 11:10:04;;;;;;;1.02;0.50;;;;;;;;;;5080100;28;20012;-67
2021/11/02 11:12:32;;;;;;;1.45;0.35;;;;;;;;;;5102867;28;20040;-67
2021/11/02 11:14:58;;;;;;;1.00;0.60;;;;;;;;;;5125705;27;20015;-67
2021/11/02 11:17:27;;;;;;;2.13;0.85;;;;;;;;;;5113660;28;20161;-68
2021/11/02 11:20:07;;;;;;;1.05;0.40;;;;;;;;;;5094745;28;20023;-65
2021/11/02 11:22:35;;;;;;;1.70;0.73;;;;;;;;;;5114900;28;20019;-66
2021/11/02 11:25:05;;;;;;;1.40;0.50;;;;;;;;;;5107402;28;20046;-66
2021/11/02 11:27:32;;;;;;;3.22;0.70;;;;;;;;;;5097101;28;20031;-66
2021/11/02 11:30:07;;;;;;;1.25;0.55;;;;;;;;;;5065395;28;20060;-67
2021/11/02 11:32:36;;;;;;;1.20;0.50;;;;;;;;;;5062452;28;20020;-67
2021/11/02 11:35:02;;;;;;;0.93;0.50;;;;;;;;;;5094531;28;20062;-66
2021/11/02 11:37:28;;;;;;;2.67;0.40;;;;;;;;;;5104025;28;20047;-67
2021/11/02 11:39:59;;;;;;;2.53;0.40;;;;;;;;;;5097321;28;20536;-67
2021/11/02 11:42:28;;;;;;;2.25;0.30;;;;;;;;;;5098566;28;20036;-67
2021/11/02 11:44:54;;;;;;;2.25;0.52;;;;;;;;;;5077567;28;20115;-67
2021/11/02 11:47:24;;;;;;;1.65;0.40;;;;;;;;;;5094059;28;20424;-67
2021/11/02 11:49:51;;;;;;;1.13;0.35;;;;;;;;;;5094287;28;20023;-66
2021/11/02 11:52:23;;;;;;;2.75;0.30;;;;;;;;;;5102498;28;20040;-67
2021/11/02 11:54:55;;;;;;;1.15;0.30;;;;;;;;;;5115167;28;20031;-67
2021/11/02 11:57:31;;;;;;;1.52;0.30;;;;;;;;;;5107049;28;20016;-67
2021/11/02 11:59:59;;;;;;;1.95;0.40;;;;;;;;;;5075893;28;20024;-67
2021/11/02 12:02:29;;;;;;;0.73;0.30;;;;;;;;;;5094055;28;20024;-67
2021/11/02 12:04:58;;;;;;;1.23;0.70;;;;;;;;;;5094099;28;20070;-67
2021/11/02 12:07:35;;;;;;;1.30;0.40;;;;;;;;;;5070925;28;20070;-67
2021/11/02 12:10:05;;;;;;;1.85;0.30;;;;;;;;;;5094534;28;20012;-67
2021/11/02 12:12:30;;;;;;;0.40;0.10;;;;;;;;;;5075391;28;20035;-67
2021/11/02 12:14:56;;;;;;;1.13;0.20;;;;;;;;;;5096161;28;20360;-67
2021/11/02 12:17:24;;;;;;;1.20;0.30;;;;;;;;;;5076287;28;20047;-67
2021/11/02 12:19:51;;;;;;;0.90;0.25;;;;;;;;;;5073733;28;20039;-67
2021/11/02 12:22:21;;;;;;;1.13;0.40;;;;;;;;;;5093473;28;20013;-67
2021/11/02 12:24:47;;;;;;;0.70;0.10;;;;;;;;;;5107370;28;20426;-67
2021/11/02 12:27:12;;;;;;;1.27;0.20;;;;;;;;;;5113964;28;20019;-66
2021/11/02 12:29:38;;;;;;;1.65;0.30;;;;;;;;;;5107839;28;20051;-66
2021/11/02 12:32:04;;;;;;;0.57;0.20;;;;;;;;;;5109956;28;20024;-67
2021/11/02 12:34:41;;;;;;;1.23;0.20;;;;;;;;;;5089828;28;20024;-66
2021/11/02 12:37:09;;;;;;;2.47;0.30;;;;;;;;;;5098541;28;20032;-66
2021/11/02 12:39:35;;;;;;;1.48;0.20;;;;;;;;;;5093331;28;20441;-67
2021/11/02 12:42:02;;;;;;;0.55;0.20;;;;;;;;;;5075537;28;20174;-67
2021/11/02 12:44:28;;;;;;;0.35;0.30;;;;;;;;;;5075625;28;20055;-66
2021/11/02 12:46:54;;;;;;;0.93;0.50;;;;;;;;;;5075188;28;20016;-67
2021/11/02 12:49:40;;;;;;;2.28;0.20;;;;;;;;;;5074654;28;20028;-66
2021/11/02 12:52:08;;;;;;;0.80;0.28;;;;;;;;;;5094424;28;20056;-66
2021/11/02 12:54:35;;;;;;;0.93;0.25;;;;;;;;;;5093022;28;20400;-67
2021/11/02 12:57:03;;;;;;;0.73;0.20;;;;;;;;;;5097492;28;20055;-67
2021/11/02 12:59:34;;;;;;;1.85;0.38;;;;;;;;;;5093424;28;20153;-67
2021/11/02 13:02:11;;;;;;;0.98;0.25;;;;;;;;;;5090908;28;20032;-67
2021/11/02 13:04:40;;;;;;;1.00;0.30;;;;;;;;;;5117476;27;20032;-66
2021/11/02 13:07:11;;;;;;;3.60;0.30;;;;;;;;;;5120093;27;20024;-67
2021/11/02 13:09:37;;;;;;;2.35;0.30;;;;;;;;;;5092932;28;20012;-67
2021/11/02 13:12:02;;;;;;;1.15;0.40;;;;;;;;;;5094374;28;20028;-66
2021/11/02 13:14:40;;;;;;;1.15;0.30;;;;;;;;;;5093110;28;20012;-67
2021/11/02 13:17:07;;;;;;;1.60;0.32;;;;;;;;;;5089450;28;20476;-68
2021/11/02 13:19:39;;;;;;;1.77;0.20;;;;;;;;;;5091469;28;20044;-67
2021/11/02 13:22:21;;;;;;;1.27;0.30;;;;;;;;;;5101625;28;20032;-67
2021/11/02 13:25:00;;;;;;;2.67;0.30;;;;;;;;;;5093011;28;20028;-67
2021/11/02 13:27:44;;;;;;;2.03;0.28;;;;;;;;;;5093612;28;20078;-67
2021/11/02 13:30:23;;;;;;;2.35;0.20;;;;;;;;;;5090789;28;20039;-68
2021/11/02 13:33:07;;;;;;;0.82;0.40;;;;;;;;;;5092669;28;20042;-68
2021/11/02 13:35:41;;;;;;;1.33;0.20;;;;;;;;;;5092143;28;20016;-67
2021/11/02 13:38:24;;;;;;;0.77;0.20;;;;;;;;;;5091738;28;20031;-67
2021/11/02 13:40:50;;;;;;;3.78;0.38;;;;;;;;;;5092258;28;20024;-67
2021/11/02 13:43:32;;;;;;;0.45;0.15;;;;;;;;;;5096337;28;20026;-66
2021/11/02 13:45:57;;;;;;;1.17;0.20;;;;;;;;;;5101823;28;20320;-69
2021/11/02 13:48:23;;;;;;;1.90;0.30;;;;;;;;;;5092560;28;20020;-69
2021/11/02 13:50:48;;;;;;;1.40;0.32;;;;;;;;;;5091626;28;20020;-69
2021/11/02 13:53:14;;;;;;;2.33;0.52;;;;;;;;;;5072841;28;20202;-70
2021/11/02 13:55:39;;;;;;;1.55;0.30;;;;;;;;;;5091577;28;20024;-70
2021/11/02 13:58:04;;;;;;;2.30;0.50;;;;;;;;;;5076548;28;20024;-73
2021/11/02 14:00:31;;;;;;;1.52;0.20;;;;;;;;;;5072915;28;20396;-72
2021/11/02 14:02:57;;;;;;;0.93;0.30;;;;;;;;;;5059234;28;20028;-73
2021/11/02 14:05:25;;;;;;;1.38;0.20;;;;;;;;;;5080454;28;20020;-75
2021/11/02 14:07:50;;;;;;;0.73;0.20;;;;;;;;;;5074347;28;20024;-68
2021/11/02 14:10:16;;;;;;;1.00;0.20;;;;;;;;;;5091978;28;20024;-68
2021/11/02 14:12:52;;;;;;;2.33;0.30;;;;;;;;;;5092328;28;20487;-68
2021/11/02 14:15:18;;;;;;;2.17;0.30;;;;;;;;;;5074902;28;20012;-68
2021/11/02 14:17:44;;;;;;;2.30;0.30;;;;;;;;;;5072770;28;20558;-69
2021/11/02 14:20:28;;;;;;;0.30;0.20;;;;;;;;;;5073305;28;20020;-68
2021/11/02 14:22:54;;;;;;;2.45;0.32;;;;;;;;;;5091398;28;20099;-68
2021/11/02 14:25:20;;;;;;;1.52;0.30;;;;;;;;;;5070925;28;20448;-68
2021/11/02 14:27:47;;;;;;;1.38;0.30;;;;;;;;;;5065305;28;20027;-69
2021/11/02 14:30:30;;;;;;;0.77;0.40;;;;;;;;;;5087576;28;20115;-69
2021/11/02 14:32:56;;;;;;;0.45;0.30;;;;;;;;;;5091780;28;20020;-69
2021/11/02 14:35:50;;;;;;;2.22;0.30;;;;;;;;;;5092110;28;20027;-69
2021/11/02 14:38:23;;;;;;;1.85;0.30;;;;;;;;;;5071361;28;20074;-69
2021/11/02 14:40:50;;;;;;;1.55;0.32;;;;;;;;;;5091804;28;20061;-69
2021/11/02 14:43:17;;;;;;;1.13;0.30;;;;;;;;;;5091611;28;20494;-69
2021/11/02 14:45:58;;;;;;;2.75;0.30;;;;;;;;;;5091395;28;20368;-70
2021/11/02 14:48:41;;;;;;;3.63;0.30;;;;;;;;;;5071485;28;20427;-69
2021/11/02 14:51:20;;;;;;;0.45;0.22;;;;;;;;;;5076464;28;20040;-69
2021/11/02 14:53:46;;;;;;;0.95;0.30;;;;;;;;;;5084936;28;20379;-68
2021/11/02 14:56:14;;;;;;;1.45;0.35;;;;;;;;;;5110842;28;20020;-68
2021/11/02 14:58:40;;;;;;;2.05;0.30;;;;;;;;;;5076538;28;20012;-68
2021/11/02 15:01:10;;;;;;;1.08;0.30;;;;;;;;;;5095152;28;20008;-70
2021/11/02 15:03:35;;;;;;;0.73;0.35;;;;;;;;;;5075726;28;20048;-68
2021/11/02 15:06:02;;;;;;;1.45;0.35;;;;;;;;;;5094662;28;20103;-70
2021/11/02 15:08:27;;;;;;;2.65;0.30;;;;;;;;;;5103361;28;20496;-69
2021/11/02 15:10:53;;;;;;;1.17;0.30;;;;;;;;;;5095535;28;20024;-70
2021/11/02 15:13:20;;;;;;;0.57;0.30;;;;;;;;;;5095099;28;20036;-68
2021/11/02 15:15:45;;;;;;;2.10;0.40;;;;;;;;;;5101299;28;20101;-69
2021/11/02 15:18:13;;;;;;;2.17;0.77;;;;;;;;;;5095341;28;20418;-69
2021/11/02 15:20:38;;;;;;;3.08;0.45;;;;;;;;;;5093336;28;20066;-69
2021/11/02 15:23:03;;;;;;;1.00;0.30;;;;;;;;;;5091474;28;20056;-70
2021/11/02 15:25:29;;;;;;;3.60;0.43;;;;;;;;;;5094446;28;20020;-70
2021/11/02 15:27:59;;;;;;;1.70;0.40;;;;;;;;;;5095861;28;20688;-70
2021/11/02 15:30:28;;;;;;;1.20;0.55;;;;;;;;;;5083478;28;20098;-68
2021/11/02 15:32:53;;;;;;;3.80;1.00;;;;;;;;;;5074980;28;20016;-69
2021/11/02 15:35:22;;;;;;;1.92;0.70;;;;;;;;;;5092274;28;20024;-69
2021/11/02 15:37:50;;;;;;;3.00;1.20;;;;;;;;;;5097743;28;20043;-69
2021/11/02 15:40:18;;;;;;;3.75;0.82;;;;;;;;;;5094049;28;20077;-69
2021/11/02 15:42:45;;;;;;;2.97;0.90;;;;;;;;;;5093335;28;20026;-69
2021/11/02 15:45:11;;;;;;;2.22;0.70;;;;;;;;;;5076523;28;20028;-69
2021/11/02 15:47:45;;;;;;;2.20;0.90;;;;;;;;;;5094040;28;20059;-68
2021/11/02 15:50:14;;;;;;;2.92;1.05;;;;;;;;;;5092891;28;20162;-69
2021/11/02 15:52:39;;;;;;;2.88;1.00;;;;;;;;;;5093484;28;20035;-69
2021/11/02 15:55:12;;;;;;;6.03;1.73;;;;;;;;;;5094110;28;20020;-69
2021/11/02 15:57:46;;;;;;;3.55;1.10;;;;;;;;;;5090131;28;20595;-69
2021/11/02 16:00:12;;;;;;;3.28;1.10;;;;;;;;;;5092497;28;20030;-69
2021/11/02 16:02:38;;;;;;;3.70;0.60;;;;;;;;;;5075010;28;20028;-69
2021/11/02 16:05:07;;;;;;;2.00;0.65;;;;;;;;;;5073394;28;20573;-68
2021/11/02 16:07:33;;;;;;;6.00;0.70;;;;;;;;;;5105077;28;20020;-69
2021/11/02 16:09:58;;;;;;;1.88;0.70;;;;;;;;;;5107883;28;20023;-69
2021/11/02 16:12:23;;;;;;;3.72;0.50;;;;;;;;;;5094349;28;20016;-69
2021/11/02 16:14:53;;;;;;;1.80;0.75;;;;;;;;;;5095639;28;20024;-68
2021/11/02 16:17:19;;;;;;;2.30;0.50;;;;;;;;;;5091235;28;20016;-68
2021/11/02 16:19:45;;;;;;;1.73;0.60;;;;;;;;;;5074324;28;20547;-69
2021/11/02 16:22:13;;;;;;;1.42;0.57;;;;;;;;;;5093273;28;20099;-69
2021/11/02 16:24:38;;;;;;;1.50;0.70;;;;;;;;;;5058687;28;20127;-68
2021/11/02 16:27:23;;;;;;;2.60;0.60;;;;;;;;;;5096194;28;20436;-69
2021/11/02 16:29:49;;;;;;;0.98;0.40;;;;;;;;;;5090016;28;20044;-69
2021/11/02 16:32:22;;;;;;;1.48;0.60;;;;;;;;;;5093337;28;20019;-69
2021/11/02 16:34:47;;;;;;;1.23;0.47;;;;;;;;;;5097255;28;20020;-68
2021/11/02 16:37:27;;;;;;;2.90;0.80;;;;;;;;;;5093261;28;20016;-69
2021/11/02 16:40:12;;;;;;;2.60;0.70;;;;;;;;;;5074616;28;20016;-68
2021/11/02 16:42:37;;;;;;;1.05;0.55;;;;;;;;;;5080313;28;20028;-69
2021/11/02 16:45:09;;;;;;;1.83;0.80;;;;;;;;;;5097515;28;20035;-69
2021/11/02 16:47:34;;;;;;;1.42;0.80;;;;;;;;;;5075201;28;20032;-69
2021/11/02 16:50:04;;;;;;;2.50;1.08;;;;;;;;;;5098555;28;20085;-69
2021/11/02 16:52:30;;;;;;;4.60;1.42;;;;;;;;;;5090824;28;20059;-68
2021/11/02 16:55:09;;;;;;;2.83;1.10;;;;;;;;;;5092749;28;20510;-68
2021/11/02 16:57:35;;;;;;;2.35;0.90;;;;;;;;;;5101057;28;20188;-69
2021/11/02 17:00:10;;;;;;;1.58;0.65;;;;;;;;;;5090757;28;20413;-69
2021/11/02 17:02:37;;;;;;;;;;;;;;;;;;5088849;28;20032;-67
2021/11/02 17:05:02;;;;;;;3.15;0.80;;;;;;;;;;5092242;28;19950;-68
2021/11/02 17:07:48;;;;;;;2.13;0.68;;;;;;;;;;5092077;28;20049;-68
2021/11/02 17:10:34;;;;;;;1.75;1.00;;;;;;;;;;5072157;28;20391;-68
2021/11/02 17:13:03;;;;;;;2.38;0.68;;;;;;;;;;5088132;28;20084;-68
2021/11/02 17:15:31;;;;;;;2.58;0.75;;;;;;;;;;5074913;28;20484;-69
2021/11/02 17:17:57;;;;;;;3.95;0.57;;;;;;;;;;5109839;28;20024;-69
2021/11/02 17:20:22;;;;;;;2.63;0.63;;;;;;;;;;5109738;28;20024;-69
2021/11/02 17:22:48;;;;;;;3.47;0.75;;;;;;;;;;5074489;28;20027;-68
2021/11/02 17:25:15;;;;;;;1.38;0.93;;;;;;;;;;5096787;28;20087;-68
2021/11/02 17:27:41;;;;;;;2.53;0.93;;;;;;;;;;5079226;28;20109;-69
2021/11/02 17:30:06;;;;;;;4.40;0.82;;;;;;;;;;5072466;28;20318;-70
2021/11/02 17:32:32;;;;;;;2.15;0.80;;;;;;;;;;5074428;28;20024;-69
2021/11/02 17:34:59;;;;;;;2.05;0.80;;;;;;;;;;5070646;28;20024;-68
2021/11/02 17:37:26;;;;;;;2.90;0.95;;;;;;;;;;5067078;28;20572;-69
2021/11/02 17:39:51;;;;;;;2.40;0.90;;;;;;;;;;5092541;28;20057;-69
2021/11/02 17:42:17;;;;;;;4.35;1.20;;;;;;;;;;5082454;28;20027;-68
2021/11/02 17:44:43;;;;;;;3.75;1.23;;;;;;;;;;5066272;28;20024;-69
2021/11/02 17:47:13;;;;;;;2.67;1.10;;;;;;;;;;5066621;28;20036;-69
2021/11/02 17:49:38;;;;;;;3.20;0.88;;;;;;;;;;5073024;28;20073;-69
2021/11/02 17:52:04;;;;;;;1.50;0.80;;;;;;;;;;5085262;28;20028;-69
2021/11/02 17:54:29;;;;;;;3.58;0.95;;;;;;;;;;5073607;28;20016;-69
2021/11/02 17:56:55;;;;;;;1.35;0.88;;;;;;;;;;5094947;28;20511;-70
2021/11/02 17:59:22;;;;;;;1.58;0.82;;;;;;;;;;5072475;28;20511;-69
2021/11/02 18:01:47;;;;;;;3.63;1.13;;;;;;;;;;5092393;28;20058;-69
2021/11/02 18:04:13;;;;;;;3.33;0.93;;;;;;;;;;5069363;28;20044;-68
2021/11/02 18:06:39;;;;;;;5.80;1.20;;;;;;;;;;5094107;28;20119;-69
2021/11/02 18:09:04;;;;;;;4.00;0.98;;;;;;;;;;5065008;28;20198;-69
2021/11/02 18:11:30;;;;;;;2.85;1.10;;;;;;;;;;5091647;28;20023;-68
2021/11/02 18:13:55;;;;;;;2.70;1.08;;;;;;;;;;5092079;28;20387;-69
2021/11/02 18:16:22;;;;;;;3.05;1.40;;;;;;;;;;5090775;28;20016;-68
2021/11/02 18:18:48;;;;;;;1.63;0.95;;;;;;;;;;5073535;28;20119;-69
2021/11/02 18:21:16;;;;;;;3.83;1.50;;;;;;;;;;5077360;28;20059;-69
2021/11/02 18:23:44;;;;;;;3.25;1.45;;;;;;;;;;5105978;28;20024;-69
2021/11/02 18:26:09;;;;;;;8.63;1.83;;;;;;;;;;5091651;28;20498;-69
2021/11/02 18:28:35;;;;;;;6.45;2.78;;;;;;;;;;5083475;28;20032;-69
2021/11/02 18:31:00;;;;;;;3.78;2.42;;;;;;;;;;5098101;28;20629;-68
2021/11/02 18:33:26;;;;;;;4.15;2.90;;;;;;;;;;5056827;28;20025;-69
2021/11/02 18:35:54;;;;;;;6.63;3.30;;;;;;;;;;5055746;28;20025;-69
2021/11/02 18:38:19;;;;;;;9.57;4.20;;;;;;;;;;5060574;28;20031;-69
2021/11/02 18:40:45;;;;;;;7.65;4.25;;;;;;;;;;5073795;28;20028;-68
2021/11/02 18:43:10;;;;;;;6.85;3.63;;;;;;;;;;5086199;28;20032;-69
2021/11/02 18:45:35;;;;;;;6.00;3.95;;;;;;;;;;5090856;28;20107;-68
2021/11/02 18:48:01;;;;;;;5.18;3.80;;;;;;;;;;5090616;28;20074;-70
2021/11/02 18:50:31;;;;;;;4.97;3.50;;;;;;;;;;5091286;28;20012;-69
2021/11/02 18:52:56;;;;;;;3.97;3.33;;;;;;;;;;5091353;28;20028;-69
2021/11/02 18:55:21;;;;;;;4.13;2.95;;;;;;;;;;5091446;28;20024;-70
2021/11/02 18:57:46;;;;;;;6.18;3.42;;;;;;;;;;5085378;28;20111;-69
2021/11/02 19:00:13;;;;;;;5.82;3.40;;;;;;;;;;5089973;28;20425;-69
2021/11/02 19:02:39;;;;;;;11.68;6.90;;;;;;;;;;5074808;28;20058;-69
2021/11/02 19:05:05;;;;;;;7.75;5.60;;;;;;;;;;5091250;28;20024;-69
2021/11/02 19:07:30;;;;;;;8.38;5.50;;;;;;;;;;5090938;28;20020;-69
2021/11/02 19:09:55;;;;;;;4.95;2.65;;;;;;;;;;5090839;28;20522;-69
2021/11/02 19:12:21;;;;;;;3.63;2.65;;;;;;;;;;5072891;28;20398;-69
2021/11/02 19:14:46;;;;;;;9.45;3.08;;;;;;;;;;5073032;28;20020;-70
2021/11/02 19:17:12;;;;;;;4.80;2.72;;;;;;;;;;5072997;28;20545;-70
2021/11/02 19:19:38;;;;;;;4.90;3.03;;;;;;;;;;5078673;28;20034;-67
2021/11/02 19:22:03;;;;;;;5.72;3.42;;;;;;;;;;5100014;28;20063;-69
2021/11/02 19:24:28;;;;;;;5.35;3.05;;;;;;;;;;5071144;28;20024;-69
2021/11/02 19:26:53;;;;;;;4.30;2.42;;;;;;;;;;5072062;28;20052;-68
2021/11/02 19:29:19;;;;;;;2.78;2.30;;;;;;;;;;5084607;28;20035;-69
2021/11/02 19:31:44;;;;;;;3.25;1.92;;;;;;;;;;5072252;28;20028;-69
2021/11/02 19:34:09;;;;;;;2.55;1.67;;;;;;;;;;5089958;28;20024;-70
2021/11/02 19:36:34;;;;;;;3.20;1.40;;;;;;;;;;5089064;28;20016;-69
2021/11/02 19:39:00;;;;;;;2.53;1.15;;;;;;;;;;5094875;28;20024;-69
2021/11/02 19:41:25;;;;;;;1.95;0.75;;;;;;;;;;5101796;28;20057;-69
2021/11/02 19:43:50;;;;;;;2.15;0.70;;;;;;;;;;5100959;28;20012;-69
2021/11/02 19:46:15;;;;;;;0.98;0.57;;;;;;;;;;5096834;28;20255;-69
2021/11/02 19:48:45;;;;;;;1.15;0.65;;;;;;;;;;5094640;28;20063;-70
2021/11/02 19:51:11;;;;;;;2.25;0.60;;;;;;;;;;5094241;28;20022;-69
2021/11/02 19:53:37;;;;;;;1.33;0.70;;;;;;;;;;5105313;28;20435;-66